Time;durP1;ratioP1;P1;durP2;ratioP2;P2;SDS_P1;SDS_P2;PMS_P1;PMS_P2;Temp;Humidity;BMP_temperature;BMP_pressure;BME280_temperature;BME280_humidity;BME280_pressure;Samples;Min_cycle;Max_cycle;Signal;HPM_P1;HPM_P2
2023/03/02 00:01:05;;;;;;;2.08;1.58;;;;;;;;;;4449835;28;20618;-62
2023/03/02 00:03:17;;;;;;;1.90;1.70;;;;;;;;;;4449430;28;20054;-62
2023/03/02 00:05:28;;;;;;;1.70;1.52;;;;;;;;;;4449732;28;20039;-62
2023/03/02 00:07:38;;;;;;;1.80;1.70;;;;;;;;;;4449306;28;20046;-63
2023/03/02 00:09:49;;;;;;;1.88;1.60;;;;;;;;;;4450102;28;20046;-62
2023/03/02 00:11:59;;;;;;;1.90;1.70;;;;;;;;;;4450151;28;20049;-63
2023/03/02 00:14:10;;;;;;;1.70;1.60;;;;;;;;;;4448464;28;20130;-62
2023/03/02 00:16:20;;;;;;;1.60;1.50;;;;;;;;;;4450452;28;20050;-62
2023/03/02 00:18:30;;;;;;;1.67;1.58;;;;;;;;;;4450294;28;20131;-62
2023/03/02 00:20:40;;;;;;;1.83;1.65;;;;;;;;;;4449314;28;20503;-63
2023/03/02 00:22:51;;;;;;;1.63;1.50;;;;;;;;;;4450427;28;20086;-63
2023/03/02 00:25:02;;;;;;;1.60;1.50;;;;;;;;;;4448886;28;20072;-63
2023/03/02 00:27:12;;;;;;;1.60;1.50;;;;;;;;;;4450081;28;20053;-62
2023/03/02 00:29:23;;;;;;;1.50;1.40;;;;;;;;;;4440131;28;20031;-62
2023/03/02 00:31:33;;;;;;;1.70;1.60;;;;;;;;;;4449435;28;20035;-63
2023/03/02 00:33:43;;;;;;;1.70;1.45;;;;;;;;;;4463724;28;20101;-62
2023/03/02 00:35:54;;;;;;;1.55;1.40;;;;;;;;;;4449108;28;20046;-63
2023/03/02 00:38:05;;;;;;;1.60;1.50;;;;;;;;;;4449414;28;20033;-62
2023/03/02 00:40:16;;;;;;;1.70;1.60;;;;;;;;;;4464536;28;20578;-62
2023/03/02 00:42:26;;;;;;;1.63;1.52;;;;;;;;;;4463743;28;20281;-63
2023/03/02 00:44:36;;;;;;;1.58;1.48;;;;;;;;;;4447687;28;20584;-62
2023/03/02 00:46:46;;;;;;;1.48;1.30;;;;;;;;;;4440676;28;20489;-62
2023/03/02 00:48:57;;;;;;;1.90;1.40;;;;;;;;;;4449550;28;20643;-62
2023/03/02 00:51:07;;;;;;;1.55;1.33;;;;;;;;;;4449538;28;20055;-62
2023/03/02 00:53:17;;;;;;;1.55;1.38;;;;;;;;;;4449242;28;20030;-62
2023/03/02 00:55:28;;;;;;;1.60;1.50;;;;;;;;;;4448693;28;20610;-62
2023/03/02 00:57:38;;;;;;;1.42;1.27;;;;;;;;;;4449025;28;20031;-63
2023/03/02 00:59:48;;;;;;;1.77;1.50;;;;;;;;;;4449360;28;20035;-62
2023/03/02 01:02:09;;;;;;;1.58;1.40;;;;;;;;;;4464157;28;20105;-63
2023/03/02 01:04:20;;;;;;;1.50;1.40;;;;;;;;;;4440248;28;20062;-62
2023/03/02 01:06:30;;;;;;;1.70;1.60;;;;;;;;;;4438557;28;20048;-62
2023/03/02 01:08:40;;;;;;;2.05;1.60;;;;;;;;;;4449623;28;20038;-62
2023/03/02 01:10:51;;;;;;;1.60;1.50;;;;;;;;;;4463773;28;20110;-62
2023/03/02 01:13:02;;;;;;;1.50;1.30;;;;;;;;;;4449231;28;20463;-62
2023/03/02 01:15:12;;;;;;;1.63;1.52;;;;;;;;;;4463493;28;20039;-62
2023/03/02 01:17:24;;;;;;;1.50;1.40;;;;;;;;;;4448963;28;20114;-62
2023/03/02 01:19:34;;;;;;;1.60;1.50;;;;;;;;;;4447457;28;20113;-62
2023/03/02 01:21:45;;;;;;;1.80;1.55;;;;;;;;;;4439185;28;20043;-62
2023/03/02 01:23:55;;;;;;;1.60;1.40;;;;;;;;;;4448061;28;20043;-62
2023/03/02 01:26:06;;;;;;;1.40;1.30;;;;;;;;;;4449202;28;20031;-62
2023/03/02 01:28:16;;;;;;;1.85;1.55;;;;;;;;;;4463298;28;20155;-62
2023/03/02 01:30:26;;;;;;;1.65;1.38;;;;;;;;;;4457809;28;20573;-62
2023/03/02 01:32:37;;;;;;;1.50;1.40;;;;;;;;;;4448982;28;20031;-62
2023/03/02 01:34:47;;;;;;;1.50;1.40;;;;;;;;;;4449420;28;20042;-62
2023/03/02 01:36:57;;;;;;;1.27;1.17;;;;;;;;;;4448623;28;20562;-63
2023/03/02 01:39:08;;;;;;;1.60;1.50;;;;;;;;;;4449151;28;20670;-62
2023/03/02 01:41:18;;;;;;;1.48;1.38;;;;;;;;;;4451296;28;20046;-62
2023/03/02 01:43:29;;;;;;;1.35;1.25;;;;;;;;;;4451689;28;20090;-63
2023/03/02 01:45:39;;;;;;;1.50;1.40;;;;;;;;;;4459720;28;20091;-63
2023/03/02 01:47:50;;;;;;;1.75;1.50;;;;;;;;;;4442744;28;20158;-63
2023/03/02 01:50:04;;;;;;;1.95;1.50;;;;;;;;;;4450663;28;20075;-62
2023/03/02 01:52:19;;;;;;;1.70;1.60;;;;;;;;;;4459537;28;20251;-62
2023/03/02 01:54:30;;;;;;;1.40;1.30;;;;;;;;;;4442502;28;20048;-63
2023/03/02 01:56:44;;;;;;;1.42;1.23;;;;;;;;;;4441563;28;21723;-62
2023/03/02 01:59:00;;;;;;;2.15;1.50;;;;;;;;;;4450008;28;20042;-62
2023/03/02 02:01:14;;;;;;;1.48;1.38;;;;;;;;;;4442205;28;20042;-62
2023/03/02 02:03:26;;;;;;;1.30;1.20;;;;;;;;;;4465032;28;20421;-62
2023/03/02 02:05:37;;;;;;;1.85;1.33;;;;;;;;;;4451563;28;20042;-62
2023/03/02 02:07:48;;;;;;;1.33;1.23;;;;;;;;;;4466089;28;20838;-62
2023/03/02 02:10:00;;;;;;;1.35;1.25;;;;;;;;;;4465628;28;20039;-63
2023/03/02 02:12:14;;;;;;;1.70;1.40;;;;;;;;;;4451065;28;20046;-62
2023/03/02 02:14:25;;;;;;;1.52;1.42;;;;;;;;;;4465680;28;20034;-62
2023/03/02 02:16:36;;;;;;;1.42;1.33;;;;;;;;;;4449994;28;20031;-62
2023/03/02 02:18:47;;;;;;;1.42;1.33;;;;;;;;;;4457760;28;20043;-62
2023/03/02 02:20:57;;;;;;;1.65;1.48;;;;;;;;;;4442217;28;20500;-62
2023/03/02 02:23:14;;;;;;;1.40;1.30;;;;;;;;;;4451186;28;20082;-62
2023/03/02 02:25:34;;;;;;;1.40;1.30;;;;;;;;;;4451289;28;20035;-62
2023/03/02 02:27:45;;;;;;;1.60;1.50;;;;;;;;;;4439686;28;20051;-62
2023/03/02 02:29:57;;;;;;;1.73;1.45;;;;;;;;;;4433333;28;20044;-62
2023/03/02 02:32:13;;;;;;;1.63;1.40;;;;;;;;;;4440405;28;20027;-62
2023/03/02 02:34:23;;;;;;;1.30;1.20;;;;;;;;;;4442553;28;21004;-62
2023/03/02 02:36:37;;;;;;;1.33;1.23;;;;;;;;;;4443120;28;21298;-62
2023/03/02 02:38:53;;;;;;;1.50;1.30;;;;;;;;;;4466169;28;20633;-62
2023/03/02 02:41:06;;;;;;;1.40;1.23;;;;;;;;;;4450949;28;20594;-62
2023/03/02 02:43:19;;;;;;;1.20;1.10;;;;;;;;;;4441398;28;20143;-62
2023/03/02 02:45:29;;;;;;;1.33;1.20;;;;;;;;;;4442569;28;20053;-62
2023/03/02 02:47:40;;;;;;;1.50;1.40;;;;;;;;;;4440880;28;20087;-62
2023/03/02 02:49:51;;;;;;;1.40;1.30;;;;;;;;;;4450745;28;20090;-62
2023/03/02 02:52:04;;;;;;;1.50;1.40;;;;;;;;;;4449596;28;20110;-62
2023/03/02 02:54:16;;;;;;;1.50;1.40;;;;;;;;;;4441333;28;20075;-62
2023/03/02 02:56:31;;;;;;;1.40;1.30;;;;;;;;;;4451372;28;20641;-62
2023/03/02 02:58:41;;;;;;;1.45;1.35;;;;;;;;;;4440778;28;20118;-62
2023/03/02 03:00:53;;;;;;;1.63;1.30;;;;;;;;;;4442527;28;20051;-62
2023/03/02 03:03:09;;;;;;;1.52;1.42;;;;;;;;;;4441756;28;20122;-62
2023/03/02 03:05:19;;;;;;;1.65;1.30;;;;;;;;;;4450663;28;20070;-62
2023/03/02 03:07:31;;;;;;;1.30;1.20;;;;;;;;;;4451087;28;20134;-63
2023/03/02 03:09:43;;;;;;;1.52;1.30;;;;;;;;;;4465740;28;20045;-62
2023/03/02 03:11:55;;;;;;;1.45;1.25;;;;;;;;;;4450892;28;20070;-62
2023/03/02 03:14:08;;;;;;;1.45;1.35;;;;;;;;;;4450137;28;20047;-63
2023/03/02 03:16:19;;;;;;;1.30;1.20;;;;;;;;;;4465091;28;20039;-63
2023/03/02 03:18:32;;;;;;;1.50;1.40;;;;;;;;;;4451006;28;20043;-62
2023/03/02 03:20:44;;;;;;;1.42;1.33;;;;;;;;;;4464728;28;20039;-62
2023/03/02 03:22:58;;;;;;;1.65;1.55;;;;;;;;;;4449934;28;20102;-62
2023/03/02 03:25:08;;;;;;;1.67;1.40;;;;;;;;;;4442157;28;20044;-62
2023/03/02 03:27:19;;;;;;;1.48;1.30;;;;;;;;;;4465104;28;20034;-62
2023/03/02 03:29:30;;;;;;;1.40;1.30;;;;;;;;;;4465357;28;20794;-61
2023/03/02 03:31:43;;;;;;;1.25;1.15;;;;;;;;;;4442925;28;20078;-62
2023/03/02 03:33:55;;;;;;;1.33;1.23;;;;;;;;;;4464639;28;20170;-62
2023/03/02 03:36:06;;;;;;;1.70;1.35;;;;;;;;;;4464865;28;20047;-62
2023/03/02 03:38:16;;;;;;;1.40;1.30;;;;;;;;;;4464992;28;20035;-62
2023/03/02 03:40:28;;;;;;;1.50;1.40;;;;;;;;;;4442702;28;20101;-62
2023/03/02 03:42:39;;;;;;;1.30;1.20;;;;;;;;;;4464938;28;20509;-62
2023/03/02 03:44:50;;;;;;;1.70;1.55;;;;;;;;;;4441363;28;20167;-62
2023/03/02 03:47:00;;;;;;;1.40;1.30;;;;;;;;;;4450692;28;20039;-63
2023/03/02 03:49:11;;;;;;;1.70;1.50;;;;;;;;;;4464649;28;20049;-62
2023/03/02 03:51:22;;;;;;;1.77;1.25;;;;;;;;;;4463933;28;20073;-62
2023/03/02 03:53:32;;;;;;;1.48;1.38;;;;;;;;;;4464598;28;20440;-62
2023/03/02 03:55:44;;;;;;;1.73;1.50;;;;;;;;;;4444790;28;20043;-62
2023/03/02 03:57:54;;;;;;;1.42;1.30;;;;;;;;;;4439684;28;20027;-62
2023/03/02 04:00:06;;;;;;;1.50;1.40;;;;;;;;;;4447572;28;20031;-62
2023/03/02 04:02:24;;;;;;;2.10;1.60;;;;;;;;;;4446581;28;20047;-62
2023/03/02 04:04:34;;;;;;;1.48;1.38;;;;;;;;;;4441377;28;20722;-62
2023/03/02 04:06:50;;;;;;;1.70;1.40;;;;;;;;;;4464431;28;20842;-62
2023/03/02 04:09:03;;;;;;;1.88;1.52;;;;;;;;;;4441661;28;20035;-62
2023/03/02 04:11:15;;;;;;;1.63;1.48;;;;;;;;;;4441143;28;20730;-62
2023/03/02 04:13:25;;;;;;;1.80;1.50;;;;;;;;;;4438517;28;20047;-62
2023/03/02 04:15:35;;;;;;;1.42;1.33;;;;;;;;;;4449488;28;20039;-62
2023/03/02 04:17:46;;;;;;;1.90;1.40;;;;;;;;;;4447304;28;20051;-62
2023/03/02 04:19:59;;;;;;;1.45;1.35;;;;;;;;;;4441497;28;20035;-62
2023/03/02 04:22:09;;;;;;;1.52;1.42;;;;;;;;;;4432096;28;20042;-62
2023/03/02 04:24:20;;;;;;;1.70;1.60;;;;;;;;;;4463801;28;20051;-62
2023/03/02 04:26:30;;;;;;;1.70;1.60;;;;;;;;;;4440894;28;20094;-62
2023/03/02 04:28:41;;;;;;;1.50;1.40;;;;;;;;;;4457574;28;20053;-62
2023/03/02 04:30:52;;;;;;;1.55;1.45;;;;;;;;;;4440512;28;20512;-61
2023/03/02 04:33:03;;;;;;;1.60;1.50;;;;;;;;;;4441154;28;20595;-62
2023/03/02 04:35:14;;;;;;;1.60;1.50;;;;;;;;;;4448165;28;20590;-62
2023/03/02 04:37:25;;;;;;;1.50;1.40;;;;;;;;;;4441066;28;20098;-62
2023/03/02 04:39:35;;;;;;;1.88;1.67;;;;;;;;;;4441164;28;20047;-62
2023/03/02 04:41:46;;;;;;;1.40;1.30;;;;;;;;;;4449093;28;20393;-62
2023/03/02 04:43:56;;;;;;;1.88;1.42;;;;;;;;;;4449019;28;20575;-62
2023/03/02 04:46:08;;;;;;;1.50;1.40;;;;;;;;;;4449174;28;20039;-62
2023/03/02 04:48:19;;;;;;;1.38;1.27;;;;;;;;;;4448947;28;20038;-62
2023/03/02 04:50:29;;;;;;;1.88;1.50;;;;;;;;;;4449397;28;20042;-62
2023/03/02 04:52:40;;;;;;;1.60;1.45;;;;;;;;;;4449071;28;20031;-62
2023/03/02 04:54:50;;;;;;;1.80;1.20;;;;;;;;;;4448252;28;20043;-62
2023/03/02 04:57:01;;;;;;;1.52;1.42;;;;;;;;;;4449298;28;20035;-62
2023/03/02 04:59:11;;;;;;;1.58;1.40;;;;;;;;;;4449154;28;20531;-62
2023/03/02 05:01:21;;;;;;;1.60;1.50;;;;;;;;;;4448845;28;20122;-61
2023/03/02 05:03:32;;;;;;;1.55;1.45;;;;;;;;;;4448776;28;20043;-62
2023/03/02 05:05:42;;;;;;;1.50;1.40;;;;;;;;;;4448851;28;20036;-62
2023/03/02 05:07:52;;;;;;;1.60;1.50;;;;;;;;;;4449345;28;20856;-62
2023/03/02 05:10:03;;;;;;;1.55;1.45;;;;;;;;;;4448093;28;20500;-62
2023/03/02 05:12:13;;;;;;;1.50;1.40;;;;;;;;;;4447750;28;20412;-62
2023/03/02 05:14:24;;;;;;;1.52;1.42;;;;;;;;;;4448356;28;20082;-62
2023/03/02 05:16:36;;;;;;;1.73;1.42;;;;;;;;;;4442837;28;20110;-62
2023/03/02 05:18:47;;;;;;;1.40;1.30;;;;;;;;;;4451326;28;20812;-63
2023/03/02 05:20:57;;;;;;;1.60;1.50;;;;;;;;;;4451127;28;20145;-62
2023/03/02 05:23:08;;;;;;;1.50;1.40;;;;;;;;;;4451231;28;20051;-61
2023/03/02 05:25:19;;;;;;;1.80;1.60;;;;;;;;;;4466501;28;20039;-62
2023/03/02 05:27:29;;;;;;;1.48;1.38;;;;;;;;;;4451791;28;20039;-62
2023/03/02 05:29:39;;;;;;;1.77;1.50;;;;;;;;;;4451427;28;20107;-61
2023/03/02 05:31:49;;;;;;;1.92;1.52;;;;;;;;;;4443206;28;20085;-62
2023/03/02 05:34:01;;;;;;;1.60;1.50;;;;;;;;;;4449643;28;20089;-62
2023/03/02 05:36:11;;;;;;;1.65;1.50;;;;;;;;;;4459299;28;20116;-62
2023/03/02 05:38:22;;;;;;;1.55;1.45;;;;;;;;;;4451310;28;20605;-62
2023/03/02 05:40:32;;;;;;;1.50;1.40;;;;;;;;;;4451644;28;20479;-63
2023/03/02 05:42:43;;;;;;;1.38;1.25;;;;;;;;;;4466317;28;20416;-62
2023/03/02 05:44:53;;;;;;;1.73;1.58;;;;;;;;;;4451420;28;20035;-62
2023/03/02 05:47:04;;;;;;;1.45;1.35;;;;;;;;;;4451515;28;20046;-62
2023/03/02 05:49:14;;;;;;;1.77;1.60;;;;;;;;;;4451825;28;20031;-62
2023/03/02 05:51:24;;;;;;;1.65;1.55;;;;;;;;;;4442276;28;20050;-62
2023/03/02 05:53:34;;;;;;;1.70;1.60;;;;;;;;;;4451430;28;20039;-62
2023/03/02 05:55:45;;;;;;;1.52;1.42;;;;;;;;;;4451257;28;20050;-62
2023/03/02 05:57:55;;;;;;;1.67;1.40;;;;;;;;;;4450299;28;20043;-62
2023/03/02 06:00:07;;;;;;;1.80;1.50;;;;;;;;;;4451671;28;20036;-62
2023/03/02 06:02:22;;;;;;;1.42;1.33;;;;;;;;;;4448970;28;20050;-62
2023/03/02 06:04:32;;;;;;;1.67;1.52;;;;;;;;;;4443101;28;20058;-62
2023/03/02 06:06:42;;;;;;;1.60;1.50;;;;;;;;;;4451727;28;20027;-62
2023/03/02 06:08:53;;;;;;;1.52;1.42;;;;;;;;;;4451715;28;20126;-63
2023/03/02 06:11:03;;;;;;;1.70;1.48;;;;;;;;;;4451161;28;20047;-63
2023/03/02 06:13:14;;;;;;;1.52;1.40;;;;;;;;;;4450291;28;20035;-62
2023/03/02 06:15:28;;;;;;;2.35;1.50;;;;;;;;;;4450710;28;20099;-62
2023/03/02 06:17:39;;;;;;;1.90;1.58;;;;;;;;;;4450555;28;20051;-63
2023/03/02 06:19:49;;;;;;;2.50;1.60;;;;;;;;;;4450258;28;20027;-64
2023/03/02 06:21:59;;;;;;;1.52;1.40;;;;;;;;;;4450747;28;20638;-64
2023/03/02 06:24:10;;;;;;;1.60;1.50;;;;;;;;;;4450558;28;20287;-64
2023/03/02 06:26:20;;;;;;;1.60;1.50;;;;;;;;;;4450154;28;20155;-64
2023/03/02 06:28:30;;;;;;;1.90;1.70;;;;;;;;;;4449106;28;20044;-64
2023/03/02 06:30:41;;;;;;;1.50;1.40;;;;;;;;;;4450204;28;20050;-64
2023/03/02 06:32:51;;;;;;;1.77;1.65;;;;;;;;;;4450417;28;20046;-63
2023/03/02 06:35:03;;;;;;;1.60;1.50;;;;;;;;;;4449911;28;20062;-63
2023/03/02 06:37:13;;;;;;;2.08;1.70;;;;;;;;;;4450038;28;20809;-61
2023/03/02 06:39:23;;;;;;;2.78;1.65;;;;;;;;;;4449673;28;20035;-63
2023/03/02 06:41:33;;;;;;;1.52;1.42;;;;;;;;;;4451809;28;20047;-63
2023/03/02 06:43:44;;;;;;;1.50;1.40;;;;;;;;;;4441572;28;20134;-61
2023/03/02 06:45:54;;;;;;;1.90;1.65;;;;;;;;;;4463726;28;20098;-62
2023/03/02 06:48:05;;;;;;;1.75;1.63;;;;;;;;;;4448895;28;20476;-63
2023/03/02 06:50:15;;;;;;;1.67;1.58;;;;;;;;;;4448986;28;20035;-63
2023/03/02 06:52:28;;;;;;;1.60;1.50;;;;;;;;;;4447659;28;20043;-63
2023/03/02 06:54:39;;;;;;;1.95;1.75;;;;;;;;;;4449034;28;20035;-63
2023/03/02 06:56:49;;;;;;;2.00;1.80;;;;;;;;;;4449611;28;20043;-63
2023/03/02 06:59:00;;;;;;;1.98;1.77;;;;;;;;;;4448122;28;20051;-63
2023/03/02 07:01:10;;;;;;;1.95;1.70;;;;;;;;;;4446637;28;20042;-62
2023/03/02 07:03:20;;;;;;;3.03;2.10;;;;;;;;;;4449104;28;20484;-62
2023/03/02 07:05:31;;;;;;;2.28;1.90;;;;;;;;;;4448427;28;20043;-62
2023/03/02 07:07:41;;;;;;;2.08;1.88;;;;;;;;;;4447641;28;20051;-63
2023/03/02 07:09:51;;;;;;;2.45;2.00;;;;;;;;;;4449585;28;20104;-63
2023/03/02 07:12:02;;;;;;;2.13;1.92;;;;;;;;;;4448937;28;20166;-63
2023/03/02 07:14:12;;;;;;;2.10;1.90;;;;;;;;;;4449034;28;21150;-62
2023/03/02 07:16:22;;;;;;;2.28;2.08;;;;;;;;;;4449526;28;20039;-63
2023/03/02 07:18:33;;;;;;;2.63;2.00;;;;;;;;;;4448879;28;20556;-63
2023/03/02 07:20:43;;;;;;;2.25;2.00;;;;;;;;;;4449520;28;20494;-63
2023/03/02 07:22:53;;;;;;;2.45;2.13;;;;;;;;;;4451371;28;20054;-63
2023/03/02 07:25:04;;;;;;;2.25;2.05;;;;;;;;;;4442202;28;20520;-62
2023/03/02 07:27:14;;;;;;;2.03;1.80;;;;;;;;;;4450232;28;20054;-63
2023/03/02 07:29:24;;;;;;;2.17;1.60;;;;;;;;;;4450286;28;20038;-63
2023/03/02 07:31:35;;;;;;;1.90;1.70;;;;;;;;;;4450536;28;20038;-64
2023/03/02 07:33:45;;;;;;;1.92;1.73;;;;;;;;;;4449574;28;20054;-66
2023/03/02 07:35:55;;;;;;;2.28;1.88;;;;;;;;;;4450979;28;20039;-65
2023/03/02 07:38:06;;;;;;;2.00;1.80;;;;;;;;;;4449520;28;20043;-62
2023/03/02 07:40:16;;;;;;;1.90;1.70;;;;;;;;;;4449043;28;20408;-63
2023/03/02 07:42:26;;;;;;;1.63;1.40;;;;;;;;;;4451135;28;20146;-62
2023/03/02 07:44:40;;;;;;;1.70;1.60;;;;;;;;;;4444806;28;20023;-62
2023/03/02 07:46:51;;;;;;;1.90;1.70;;;;;;;;;;4450407;28;20042;-61
2023/03/02 07:49:01;;;;;;;2.00;1.80;;;;;;;;;;4450998;28;20118;-61
2023/03/02 07:51:11;;;;;;;1.85;1.70;;;;;;;;;;4449845;28;20055;-61
2023/03/02 07:53:22;;;;;;;1.90;1.70;;;;;;;;;;4449907;28;20049;-61
2023/03/02 07:55:32;;;;;;;1.58;1.48;;;;;;;;;;4450113;28;20134;-62
2023/03/02 07:57:42;;;;;;;2.00;1.58;;;;;;;;;;4455928;28;20686;-62
2023/03/02 07:59:53;;;;;;;2.22;1.90;;;;;;;;;;4450281;28;20046;-61
2023/03/02 08:02:03;;;;;;;1.70;1.60;;;;;;;;;;4443069;28;20054;-62
2023/03/02 08:04:13;;;;;;;2.10;1.85;;;;;;;;;;4450824;28;20050;-62
2023/03/02 08:06:23;;;;;;;1.70;1.60;;;;;;;;;;4465860;28;20196;-62
2023/03/02 08:08:34;;;;;;;1.70;1.60;;;;;;;;;;4450639;28;20047;-62
2023/03/02 08:10:44;;;;;;;1.70;1.58;;;;;;;;;;4448852;28;20071;-64
2023/03/02 08:12:55;;;;;;;1.63;1.50;;;;;;;;;;4449924;28;20789;-61
2023/03/02 08:15:05;;;;;;;1.70;1.60;;;;;;;;;;4448591;28;20677;-61
2023/03/02 08:17:16;;;;;;;1.98;1.77;;;;;;;;;;4448605;28;20201;-60
2023/03/02 08:19:26;;;;;;;1.60;1.50;;;;;;;;;;4448598;28;20109;-60
2023/03/02 08:21:36;;;;;;;2.40;1.90;;;;;;;;;;4448602;28;20043;-63
2023/03/02 08:23:47;;;;;;;2.00;1.70;;;;;;;;;;4464013;28;20050;-61
2023/03/02 08:25:57;;;;;;;1.65;1.55;;;;;;;;;;4448625;28;20047;-61
2023/03/02 08:28:07;;;;;;;2.53;1.60;;;;;;;;;;4449029;28;20051;-60
2023/03/02 08:30:18;;;;;;;1.80;1.52;;;;;;;;;;4448599;28;20056;-61
2023/03/02 08:32:28;;;;;;;1.60;1.50;;;;;;;;;;4457744;28;20047;-61
2023/03/02 08:34:38;;;;;;;1.60;1.50;;;;;;;;;;4449020;28;20118;-61
2023/03/02 08:36:49;;;;;;;1.60;1.50;;;;;;;;;;4448527;28;20043;-62
2023/03/02 08:38:59;;;;;;;1.42;1.33;;;;;;;;;;4440508;28;20040;-61
2023/03/02 08:41:11;;;;;;;1.52;1.42;;;;;;;;;;4448926;28;20188;-61
2023/03/02 08:43:23;;;;;;;1.70;1.50;;;;;;;;;;4448226;28;20381;-60
2023/03/02 08:45:33;;;;;;;1.70;1.50;;;;;;;;;;4449431;28;20142;-61
2023/03/02 08:47:44;;;;;;;1.40;1.30;;;;;;;;;;4448711;28;20584;-61
2023/03/02 08:49:54;;;;;;;1.50;1.40;;;;;;;;;;4450117;28;20043;-61
2023/03/02 08:52:04;;;;;;;1.70;1.60;;;;;;;;;;4451906;28;20095;-61
2023/03/02 08:54:15;;;;;;;1.45;1.30;;;;;;;;;;4452414;28;20456;-61
2023/03/02 08:56:27;;;;;;;2.00;1.80;;;;;;;;;;4452354;28;20047;-60
2023/03/02 08:58:37;;;;;;;1.50;1.40;;;;;;;;;;4452127;28;20049;-62
2023/03/02 09:00:48;;;;;;;1.60;1.50;;;;;;;;;;4453407;28;20055;-63
2023/03/02 09:02:58;;;;;;;2.28;1.70;;;;;;;;;;4453392;28;20040;-63
2023/03/02 09:05:09;;;;;;;2.00;1.52;;;;;;;;;;4468046;28;20031;-63
2023/03/02 09:07:19;;;;;;;1.60;1.48;;;;;;;;;;4453336;28;20115;-62
2023/03/02 09:09:29;;;;;;;1.92;1.73;;;;;;;;;;4468501;28;20867;-63
2023/03/02 09:11:41;;;;;;;2.20;1.67;;;;;;;;;;4451975;28;20035;-62
2023/03/02 09:13:51;;;;;;;2.00;1.70;;;;;;;;;;4453155;28;20035;-63
2023/03/02 09:16:02;;;;;;;1.52;1.42;;;;;;;;;;4453187;28;20488;-62
2023/03/02 09:18:12;;;;;;;1.50;1.40;;;;;;;;;;4452491;28;20499;-62
2023/03/02 09:20:23;;;;;;;2.00;1.60;;;;;;;;;;4451964;28;20501;-62
2023/03/02 09:22:34;;;;;;;1.92;1.40;;;;;;;;;;4467092;28;20042;-62
2023/03/02 09:24:45;;;;;;;1.40;1.30;;;;;;;;;;4466553;28;20066;-61
2023/03/02 09:26:55;;;;;;;1.50;1.40;;;;;;;;;;4452681;28;20039;-62
2023/03/02 09:29:06;;;;;;;1.60;1.40;;;;;;;;;;4452297;28;20031;-62
2023/03/02 09:31:16;;;;;;;1.40;1.30;;;;;;;;;;4452663;28;20058;-63
2023/03/02 09:33:27;;;;;;;1.75;1.40;;;;;;;;;;4452595;28;20767;-64
2023/03/02 09:35:37;;;;;;;1.80;1.70;;;;;;;;;;4453281;28;20050;-64
2023/03/02 09:37:47;;;;;;;1.50;1.40;;;;;;;;;;4453424;28;20047;-63
2023/03/02 09:39:58;;;;;;;1.65;1.40;;;;;;;;;;4451547;28;20024;-63
2023/03/02 09:42:08;;;;;;;1.85;1.50;;;;;;;;;;4451955;28;20035;-64
2023/03/02 09:44:37;;;;;;;1.85;1.50;;;;;;;;;;4452052;28;20051;-64
2023/03/02 09:46:53;;;;;;;1.50;1.40;;;;;;;;;;4452575;28;20035;-63
2023/03/02 09:49:03;;;;;;;1.50;1.40;;;;;;;;;;4451572;28;20114;-64
2023/03/02 09:51:45;;;;;;;2.03;1.60;;;;;;;;;;4452063;28;20098;-64
2023/03/02 09:54:08;;;;;;;1.60;1.40;;;;;;;;;;4419944;28;20996;-64
2023/03/02 09:56:19;;;;;;;1.80;1.40;;;;;;;;;;4444356;28;20046;-64
2023/03/02 09:58:37;;;;;;;1.60;1.50;;;;;;;;;;4453053;28;20392;-64
2023/03/02 10:00:48;;;;;;;1.50;1.40;;;;;;;;;;4451401;28;20031;-63
2023/03/02 10:03:00;;;;;;;1.38;1.27;;;;;;;;;;4443225;28;20599;-64
2023/03/02 10:05:30;;;;;;;1.85;1.50;;;;;;;;;;4451691;28;20649;-63
2023/03/02 10:07:40;;;;;;;2.20;1.55;;;;;;;;;;4451728;28;20032;-64
2023/03/02 10:09:50;;;;;;;1.35;1.25;;;;;;;;;;4466423;28;20527;-64
2023/03/02 10:12:12;;;;;;;1.40;1.30;;;;;;;;;;4450992;28;20512;-64
2023/03/02 10:14:25;;;;;;;1.30;1.20;;;;;;;;;;4451695;28;20063;-64
2023/03/02 10:16:54;;;;;;;1.40;1.30;;;;;;;;;;4452530;28;20090;-64
2023/03/02 10:19:36;;;;;;;1.50;1.35;;;;;;;;;;4451331;28;20066;-64
2023/03/02 10:21:49;;;;;;;1.48;1.23;;;;;;;;;;4431933;28;20066;-64
2023/03/02 10:24:02;;;;;;;1.55;1.27;;;;;;;;;;4450517;28;20044;-64
2023/03/02 10:26:16;;;;;;;1.40;1.20;;;;;;;;;;4451529;28;21346;-64
2023/03/02 10:28:29;;;;;;;1.30;1.20;;;;;;;;;;4451958;28;20047;-64
2023/03/02 10:30:40;;;;;;;1.30;1.20;;;;;;;;;;4451311;28;20708;-64
2023/03/02 10:32:51;;;;;;;1.70;1.38;;;;;;;;;;4465490;28;20050;-64
2023/03/02 10:35:09;;;;;;;1.30;1.20;;;;;;;;;;4449890;28;20874;-63
2023/03/02 10:37:23;;;;;;;1.08;0.98;;;;;;;;;;4442004;28;20095;-63
2023/03/02 10:39:34;;;;;;;1.25;1.15;;;;;;;;;;4450020;28;20602;-65
2023/03/02 10:41:48;;;;;;;1.30;1.20;;;;;;;;;;4464261;28;20055;-65
2023/03/02 10:44:04;;;;;;;1.38;1.20;;;;;;;;;;4449993;28;20047;-61
2023/03/02 10:46:14;;;;;;;1.30;1.10;;;;;;;;;;4450062;28;20502;-61
2023/03/02 10:48:25;;;;;;;1.38;1.15;;;;;;;;;;4449265;28;20047;-65
2023/03/02 10:50:35;;;;;;;1.30;1.20;;;;;;;;;;4449825;28;20030;-65
2023/03/02 10:52:49;;;;;;;1.30;1.20;;;;;;;;;;4442988;28;20065;-65
2023/03/02 10:55:00;;;;;;;1.30;1.20;;;;;;;;;;4449747;28;20737;-65
2023/03/02 10:57:27;;;;;;;1.30;1.20;;;;;;;;;;4450972;28;20611;-65
2023/03/02 10:59:39;;;;;;;1.20;1.10;;;;;;;;;;4450408;28;20121;-65
2023/03/02 11:02:09;;;;;;;1.30;1.13;;;;;;;;;;4450774;28;20031;-66
2023/03/02 11:04:20;;;;;;;1.02;0.93;;;;;;;;;;4450356;28;20082;-65
2023/03/02 11:06:30;;;;;;;1.30;1.20;;;;;;;;;;4450808;28;20433;-65
2023/03/02 11:08:40;;;;;;;1.17;1.08;;;;;;;;;;4451074;28;20058;-66
2023/03/02 11:10:56;;;;;;;1.20;1.10;;;;;;;;;;4450458;28;20408;-65
2023/03/02 11:13:17;;;;;;;1.42;1.20;;;;;;;;;;4449348;28;20071;-66
2023/03/02 11:15:30;;;;;;;1.20;1.10;;;;;;;;;;4450841;28;20042;-65
2023/03/02 11:17:42;;;;;;;1.40;1.20;;;;;;;;;;4451027;28;20039;-65
2023/03/02 11:19:52;;;;;;;1.40;1.30;;;;;;;;;;4450283;28;20098;-65
2023/03/02 11:22:11;;;;;;;1.10;1.00;;;;;;;;;;4450162;28;20122;-65
2023/03/02 11:24:35;;;;;;;1.50;1.20;;;;;;;;;;4450123;28;21218;-65
2023/03/02 11:27:18;;;;;;;1.40;1.10;;;;;;;;;;4450204;28;20024;-65
2023/03/02 11:29:36;;;;;;;1.50;1.23;;;;;;;;;;4415283;28;20059;-65
2023/03/02 11:31:49;;;;;;;1.30;1.10;;;;;;;;;;4450069;28;20031;-65
2023/03/02 11:34:21;;;;;;;1.38;1.00;;;;;;;;;;4449417;28;20039;-65
2023/03/02 11:36:51;;;;;;;1.10;1.00;;;;;;;;;;4449691;28;20042;-65
2023/03/02 11:39:08;;;;;;;1.10;0.90;;;;;;;;;;4438671;28;20098;-64
2023/03/02 11:41:28;;;;;;;1.23;1.08;;;;;;;;;;4449587;28;20035;-66
2023/03/02 11:43:39;;;;;;;1.33;1.20;;;;;;;;;;4448796;28;21108;-66
2023/03/02 11:46:02;;;;;;;0.93;0.90;;;;;;;;;;4449267;28;20153;-65
2023/03/02 11:48:31;;;;;;;1.10;1.00;;;;;;;;;;4449917;28;20031;-65
2023/03/02 11:50:52;;;;;;;1.10;1.00;;;;;;;;;;4449571;28;20035;-65
2023/03/02 11:53:13;;;;;;;0.82;0.82;;;;;;;;;;4449789;28;20035;-65
2023/03/02 11:55:25;;;;;;;1.15;1.08;;;;;;;;;;4448820;28;21393;-66
2023/03/02 11:57:47;;;;;;;1.05;1.02;;;;;;;;;;4449682;28;20031;-67
2023/03/02 11:59:58;;;;;;;1.20;1.10;;;;;;;;;;4449834;28;20085;-67
2023/03/02 12:02:10;;;;;;;1.20;1.10;;;;;;;;;;4449861;28;20043;-62
2023/03/02 12:04:36;;;;;;;1.15;1.05;;;;;;;;;;4449053;28;21438;-67
2023/03/02 12:06:46;;;;;;;1.10;1.00;;;;;;;;;;4449179;28;20039;-65
2023/03/02 12:09:07;;;;;;;1.30;1.10;;;;;;;;;;4449763;28;20800;-66
2023/03/02 12:11:18;;;;;;;0.90;0.90;;;;;;;;;;4450323;28;20142;-65
2023/03/02 12:13:33;;;;;;;1.00;0.90;;;;;;;;;;4449033;28;20070;-65
2023/03/02 12:15:49;;;;;;;1.45;1.00;;;;;;;;;;4449499;28;20110;-66
2023/03/02 12:17:59;;;;;;;1.20;1.10;;;;;;;;;;4449725;28;20047;-65
2023/03/02 12:20:19;;;;;;;1.23;1.10;;;;;;;;;;4449133;28;20321;-65
2023/03/02 12:22:30;;;;;;;1.38;1.23;;;;;;;;;;4447735;28;20047;-66
2023/03/02 12:24:42;;;;;;;1.20;1.10;;;;;;;;;;4448493;28;20039;-65
2023/03/02 12:27:25;;;;;;;1.42;1.23;;;;;;;;;;4448914;28;20154;-66
2023/03/02 12:29:37;;;;;;;1.23;1.13;;;;;;;;;;4441173;28;20133;-66
2023/03/02 12:31:49;;;;;;;1.20;1.00;;;;;;;;;;4448595;28;20043;-65
2023/03/02 12:33:59;;;;;;;1.20;1.10;;;;;;;;;;4447942;28;20042;-65
2023/03/02 12:36:12;;;;;;;1.00;0.90;;;;;;;;;;4449667;28;20050;-66
2023/03/02 12:38:30;;;;;;;1.35;1.20;;;;;;;;;;4448072;28;20031;-65
2023/03/02 12:40:59;;;;;;;1.20;1.10;;;;;;;;;;4448471;28;20046;-65
2023/03/02 12:43:15;;;;;;;1.30;1.20;;;;;;;;;;4448927;28;20047;-65
2023/03/02 12:45:32;;;;;;;1.10;1.00;;;;;;;;;;4450035;28;20043;-65
2023/03/02 12:47:45;;;;;;;1.02;1.00;;;;;;;;;;4450528;28;20770;-64
2023/03/02 12:50:00;;;;;;;1.15;1.02;;;;;;;;;;4449462;28;20038;-64
2023/03/02 12:52:29;;;;;;;1.00;0.90;;;;;;;;;;4463777;28;20110;-65
2023/03/02 12:54:40;;;;;;;1.20;1.10;;;;;;;;;;4448694;28;20031;-65
2023/03/02 12:57:00;;;;;;;1.20;1.10;;;;;;;;;;4449355;28;20492;-64
2023/03/02 12:59:37;;;;;;;1.10;1.00;;;;;;;;;;4450044;28;20876;-64
2023/03/02 13:01:47;;;;;;;1.20;1.10;;;;;;;;;;4446119;28;20047;-64
2023/03/02 13:03:58;;;;;;;1.27;1.17;;;;;;;;;;4448483;28;20052;-64
2023/03/02 13:06:13;;;;;;;1.15;1.05;;;;;;;;;;4449937;28;20643;-63
2023/03/02 13:08:26;;;;;;;1.30;1.20;;;;;;;;;;4449555;28;20566;-63
2023/03/02 13:10:39;;;;;;;1.20;1.10;;;;;;;;;;4464315;28;20359;-64
2023/03/02 13:12:49;;;;;;;1.30;1.20;;;;;;;;;;4448640;28;20180;-64
2023/03/02 13:15:00;;;;;;;1.02;1.02;;;;;;;;;;4449582;28;20049;-65